Wheeler, Indiana
Current Conditions -  °F | °C
As of 5:56 AM on Friday 24 Oct 2014 (Local Time) from KVPZ Reporting Station
Overcast Overcast  
Wind Chill: 51°   Ceiling: 2300
Heat Index: 51°   Visibility: 10mi
Dew Point: 45°   Wind: 3mph
Humidity: 80%   Direction: 200°SSW
Pressure: 30.07"   Gusts: NA
Location:  41.51°N, 87.18°W
Report Text: KVPZ 241056Z AUTO 20003KT 10SM OVC023 11/07 A3007 RMK AO2 SLP184 T01060072 TSNO
Loading
Personal Weather Stations






























Interactive Weather Map New forecast layout! Learn more

10-Day Weather Forecast

Advertisements
Track Severe Weather on mobile